createdAt,value
2022-10-01T00:01:23.496Z,11.40
2022-10-01T00:04:01.021Z,11.40
2022-10-01T00:06:36.905Z,11.40
2022-10-01T00:09:12.844Z,11.40
2022-10-01T00:11:48.645Z,11.40
2022-10-01T00:14:24.629Z,11.40
2022-10-01T00:17:00.615Z,11.40
2022-10-01T00:19:36.941Z,11.40
2022-10-01T00:22:13.039Z,11.40
2022-10-01T00:24:49.529Z,11.40
2022-10-01T00:27:25.520Z,11.36
2022-10-01T00:30:03.453Z,11.30
2022-10-01T00:32:41.441Z,11.30
2022-10-01T00:35:17.867Z,11.30
2022-10-01T00:37:54.742Z,11.30
2022-10-01T00:40:31.016Z,11.30
2022-10-01T00:43:28.830Z,11.24
2022-10-01T00:46:15.365Z,11.20
2022-10-01T00:49:01.246Z,11.20
2022-10-01T00:51:43.821Z,11.20
2022-10-01T00:54:31.093Z,11.20
2022-10-01T00:57:09.865Z,11.20
2022-10-01T00:59:46.610Z,11.20
2022-10-01T01:02:22.775Z,11.20
2022-10-01T01:04:59.465Z,11.20
2022-10-01T01:07:37.030Z,11.20
2022-10-01T01:10:16.251Z,11.20
2022-10-01T01:13:18.451Z,11.20
2022-10-01T01:16:06.164Z,11.20
2022-10-01T01:18:52.362Z,11.20
2022-10-01T01:21:36.463Z,11.20
2022-10-01T01:24:50.885Z,11.20
2022-10-01T01:27:39.160Z,11.18
2022-10-01T01:30:18.093Z,11.10
2022-10-01T01:33:04.758Z,11.10
2022-10-01T01:35:47.981Z,11.10
2022-10-01T01:38:28.819Z,11.10
2022-10-01T01:41:07.958Z,11.10
2022-10-01T01:43:49.714Z,11.10
2022-10-01T01:46:32.091Z,11.10
2022-10-01T01:49:09.101Z,11.10
2022-10-01T01:51:58.356Z,11.10
2022-10-01T01:54:35.896Z,11.10
2022-10-01T01:57:15.034Z,11.10
2022-10-01T01:59:51.235Z,11.10
2022-10-01T02:02:34.356Z,11.10
2022-10-01T02:05:16.227Z,11.10
2022-10-01T02:08:09.463Z,11.12
2022-10-01T02:11:05.817Z,11.10
2022-10-01T02:14:00.440Z,11.16
2022-10-01T02:16:50.264Z,11.20
2022-10-01T02:19:37.580Z,11.20
2022-10-01T02:22:22.967Z,11.20
2022-10-01T02:25:06.303Z,11.20
2022-10-01T02:27:50.280Z,11.20
2022-10-01T02:30:26.492Z,11.20
2022-10-01T02:33:05.321Z,11.18
2022-10-01T02:35:44.378Z,11.10
2022-10-01T02:38:23.874Z,11.10
2022-10-01T02:41:05.810Z,11.10
2022-10-01T02:43:53.466Z,11.10
2022-10-01T02:46:37.520Z,11.10
2022-10-01T02:49:15.120Z,11.10
2022-10-01T02:52:09.097Z,11.10
2022-10-01T02:54:54.674Z,11.10
2022-10-01T02:57:32.413Z,11.10
2022-10-01T03:00:21.460Z,11.10
2022-10-01T03:02:57.849Z,11.10
2022-10-01T03:05:33.962Z,11.10
2022-10-01T03:08:09.934Z,11.10
2022-10-01T03:10:46.908Z,11.10
2022-10-01T03:13:23.592Z,11.10
2022-10-01T03:15:59.475Z,11.10
2022-10-01T03:18:35.479Z,11.10
2022-10-01T03:21:11.571Z,11.10
2022-10-01T03:23:47.612Z,11.10
2022-10-01T03:26:23.484Z,11.10
2022-10-01T03:28:59.169Z,11.10
2022-10-01T03:31:35.391Z,11.10
2022-10-01T03:34:13.468Z,11.10
2022-10-01T03:36:50.087Z,11.10
2022-10-01T03:39:25.874Z,11.10
2022-10-01T03:42:01.925Z,11.10
2022-10-01T03:44:37.808Z,11.10
2022-10-01T03:47:13.961Z,11.10
2022-10-01T03:49:49.780Z,11.04
2022-10-01T03:52:25.662Z,11.00
2022-10-01T03:55:01.920Z,11.00
2022-10-01T03:57:37.765Z,11.00
2022-10-01T04:00:18.370Z,11.00
2022-10-01T04:02:54.345Z,11.00
2022-10-01T04:05:30.233Z,11.00
2022-10-01T04:08:06.731Z,10.96
2022-10-01T04:10:43.678Z,10.90
2022-10-01T04:13:20.070Z,10.90
2022-10-01T04:15:55.864Z,10.98
2022-10-01T04:18:31.926Z,11.00
2022-10-01T04:21:07.958Z,11.00
2022-10-01T04:23:44.262Z,11.00
2022-10-01T04:26:20.144Z,11.00
2022-10-01T04:28:56.047Z,11.00
2022-10-01T04:31:35.488Z,11.00
2022-10-01T04:34:12.853Z,11.00
2022-10-01T04:36:49.150Z,11.00
2022-10-01T04:39:25.146Z,11.00
2022-10-01T04:42:01.745Z,11.00
2022-10-01T04:44:37.626Z,11.00
2022-10-01T04:47:13.532Z,11.00
2022-10-01T04:49:49.311Z,11.00
2022-10-01T04:52:25.167Z,11.00
2022-10-01T04:55:01.302Z,11.00
2022-10-01T04:57:38.379Z,11.00
2022-10-01T05:00:19.088Z,11.00
2022-10-01T05:02:55.913Z,11.00
2022-10-01T05:05:33.298Z,11.00
2022-10-01T05:08:10.078Z,11.00
2022-10-01T05:10:46.074Z,11.00
2022-10-01T05:13:21.813Z,11.00
2022-10-01T05:15:57.644Z,11.00
2022-10-01T05:18:33.637Z,11.00
2022-10-01T05:21:12.776Z,11.00
2022-10-01T05:23:48.535Z,11.08
2022-10-01T05:26:24.474Z,11.10
2022-10-01T05:29:00.600Z,11.10
2022-10-01T05:31:37.919Z,11.10
2022-10-01T05:34:14.630Z,11.10
2022-10-01T05:36:50.422Z,11.18
2022-10-01T05:39:26.407Z,11.20
2022-10-01T05:42:06.282Z,11.30
2022-10-01T05:44:46.533Z,11.40
2022-10-01T05:47:23.081Z,11.50
2022-10-01T05:49:59.241Z,11.60
2022-10-01T05:52:35.093Z,11.60
2022-10-01T05:55:12.015Z,11.70
2022-10-01T05:57:54.168Z,11.80
2022-10-01T06:00:31.329Z,11.80
2022-10-01T06:03:09.246Z,11.90
2022-10-01T06:05:46.883Z,11.90
2022-10-01T06:08:22.827Z,11.92
2022-10-01T06:11:05.536Z,12.00
2022-10-01T06:13:46.919Z,12.00
2022-10-01T06:16:22.894Z,12.02
2022-10-01T06:18:59.466Z,12.10
2022-10-01T06:21:35.971Z,12.10
2022-10-01T06:24:12.477Z,12.10
2022-10-01T06:26:49.340Z,12.12
2022-10-01T06:29:25.398Z,12.20
2022-10-01T06:32:01.595Z,12.20
2022-10-01T06:34:37.566Z,12.20
2022-10-01T06:37:13.453Z,12.20
2022-10-01T06:39:49.327Z,12.30
2022-10-01T06:42:25.108Z,12.30
2022-10-01T06:45:01.040Z,12.40
2022-10-01T06:47:37.904Z,12.40
2022-10-01T06:50:14.769Z,12.50
2022-10-01T06:52:50.654Z,12.50
2022-10-01T06:55:29.659Z,12.60
2022-10-01T06:58:08.809Z,12.60
2022-10-01T07:00:45.386Z,12.60
2022-10-01T07:03:24.716Z,12.70
2022-10-01T07:06:08.235Z,12.70
2022-10-01T07:08:44.041Z,12.80
2022-10-01T07:11:20.201Z,12.80
2022-10-01T07:13:57.690Z,12.90
2022-10-01T07:16:34.040Z,12.90
2022-10-01T07:19:10.155Z,12.90
2022-10-01T07:21:48.819Z,12.98
2022-10-01T07:24:24.670Z,13.00
2022-10-01T07:27:05.066Z,13.08
2022-10-01T07:29:43.212Z,13.10
2022-10-01T07:32:19.039Z,13.20
2022-10-01T07:34:55.163Z,13.20
2022-10-01T07:37:31.462Z,13.30
2022-10-01T07:40:08.746Z,13.40
2022-10-01T07:42:45.038Z,13.36
2022-10-01T07:45:22.043Z,13.40
2022-10-01T07:48:05.597Z,13.40
2022-10-01T07:50:43.677Z,13.40
2022-10-01T07:53:20.023Z,13.42
2022-10-01T07:55:56.175Z,13.50
2022-10-01T07:58:32.030Z,13.50
2022-10-01T08:01:10.296Z,13.50
2022-10-01T08:03:48.851Z,13.50
2022-10-01T08:06:25.941Z,13.50
2022-10-01T08:09:02.203Z,13.50
2022-10-01T08:11:38.124Z,13.52
2022-10-01T08:14:14.117Z,13.60
2022-10-01T08:16:50.282Z,13.60
2022-10-01T08:19:26.338Z,13.70
2022-10-01T08:22:02.068Z,13.70
2022-10-01T08:24:38.254Z,13.80
2022-10-01T08:27:14.140Z,13.80
2022-10-01T08:29:50.250Z,13.80
2022-10-01T08:32:28.196Z,13.80
2022-10-01T08:35:04.965Z,13.80
2022-10-01T08:37:40.756Z,13.80
2022-10-01T08:40:17.703Z,13.80
2022-10-01T08:43:03.250Z,13.80
2022-10-01T08:45:49.539Z,13.80
2022-10-01T08:48:45.106Z,13.80
2022-10-01T08:51:31.423Z,13.80
2022-10-01T08:54:24.762Z,13.80
2022-10-01T08:57:04.483Z,13.80
2022-10-01T08:59:49.945Z,13.80
2022-10-01T09:02:31.227Z,13.90
2022-10-01T09:05:15.001Z,13.90
2022-10-01T09:08:21.560Z,13.90
2022-10-01T09:11:12.110Z,13.90
2022-10-01T09:14:10.546Z,13.90
2022-10-01T09:17:01.602Z,13.90
2022-10-01T09:20:00.384Z,14.00
2022-10-01T09:22:52.237Z,14.02
2022-10-01T09:25:31.171Z,14.12
2022-10-01T09:28:18.003Z,14.22
2022-10-01T09:31:01.630Z,14.30
2022-10-01T09:33:42.913Z,14.40
2022-10-01T09:36:28.446Z,14.40
2022-10-01T09:39:19.625Z,14.40
2022-10-01T09:41:56.305Z,14.40
2022-10-01T09:44:35.502Z,14.48
2022-10-01T09:47:23.221Z,14.50
2022-10-01T09:50:02.078Z,14.50
2022-10-01T09:52:41.841Z,14.60
2022-10-01T09:55:33.186Z,14.60
2022-10-01T09:58:18.464Z,14.60
2022-10-01T10:00:56.678Z,14.70
2022-10-01T10:03:34.716Z,14.76
2022-10-01T10:06:11.107Z,14.80
2022-10-01T10:08:49.242Z,14.80
2022-10-01T10:11:31.707Z,14.80
2022-10-01T10:14:17.090Z,14.80
2022-10-01T10:16:57.054Z,14.90
2022-10-01T10:19:34.183Z,14.90
2022-10-01T10:22:24.958Z,14.94
2022-10-01T10:25:17.563Z,15.00
2022-10-01T10:28:02.606Z,15.00
2022-10-01T10:30:43.605Z,15.00
2022-10-01T10:33:22.015Z,15.00
2022-10-01T10:36:09.578Z,15.00
2022-10-01T10:38:50.965Z,15.06
2022-10-01T10:41:29.495Z,15.00
2022-10-01T10:44:14.607Z,15.06
2022-10-01T10:46:53.282Z,15.08
2022-10-01T10:49:32.970Z,15.10
2022-10-01T10:52:26.158Z,15.10
2022-10-01T10:55:21.180Z,15.08
2022-10-01T10:58:08.815Z,15.00
2022-10-01T11:00:53.883Z,15.00
2022-10-01T11:03:38.131Z,15.00
2022-10-01T11:06:19.647Z,15.00
2022-10-01T11:09:11.729Z,15.00
2022-10-01T11:12:02.835Z,14.90
2022-10-01T11:15:09.278Z,14.90
2022-10-01T11:18:24.198Z,14.90
2022-10-01T11:21:20.218Z,15.10
2022-10-01T11:24:33.650Z,15.10
2022-10-01T11:27:24.393Z,15.10
2022-10-01T11:30:12.776Z,15.10
2022-10-01T11:33:03.715Z,15.10
2022-10-01T11:35:59.425Z,15.00
2022-10-01T11:38:54.784Z,15.00
2022-10-01T11:41:44.421Z,15.02
2022-10-01T11:44:30.231Z,15.10
2022-10-01T11:47:14.553Z,15.10
2022-10-01T11:50:05.488Z,15.16
2022-10-01T11:52:52.719Z,15.20
2022-10-01T11:55:53.154Z,15.20
2022-10-01T11:58:54.150Z,15.20
2022-10-01T12:01:43.624Z,15.20
2022-10-01T12:04:37.954Z,15.20
2022-10-01T12:07:23.538Z,15.20
2022-10-01T12:10:21.305Z,15.20
2022-10-01T12:13:10.163Z,15.20
2022-10-01T12:15:54.688Z,15.20
2022-10-01T12:18:43.548Z,15.30
2022-10-01T12:21:27.721Z,15.30
2022-10-01T12:24:13.015Z,15.30
2022-10-01T12:27:08.200Z,15.30
2022-10-01T12:30:03.380Z,15.40
2022-10-01T12:33:17.889Z,15.50
2022-10-01T12:36:16.172Z,15.52
2022-10-01T12:39:14.025Z,15.50
2022-10-01T12:42:09.375Z,15.40
2022-10-01T12:45:03.829Z,15.40
2022-10-01T12:47:52.384Z,15.40
2022-10-01T12:50:47.132Z,15.34
2022-10-01T12:53:45.817Z,15.30
2022-10-01T12:56:34.025Z,15.30
2022-10-01T12:59:44.569Z,15.20
2022-10-01T13:02:59.210Z,15.20
2022-10-01T13:05:51.856Z,15.10
2022-10-01T13:08:49.081Z,15.10
2022-10-01T13:11:47.075Z,15.10
2022-10-01T13:14:24.200Z,15.00
2022-10-01T13:17:07.906Z,15.00
2022-10-01T13:19:55.456Z,15.00
2022-10-01T13:22:47.242Z,15.00
2022-10-01T13:25:36.308Z,15.00
2022-10-01T13:28:27.018Z,15.00
2022-10-01T13:31:14.835Z,15.10
2022-10-01T13:34:01.604Z,15.10
2022-10-01T13:36:40.047Z,15.18
2022-10-01T13:39:39.446Z,15.20
2022-10-01T13:42:27.490Z,15.20
2022-10-01T13:45:07.307Z,15.20
2022-10-01T13:47:43.172Z,15.20
2022-10-01T13:50:27.994Z,15.12
2022-10-01T13:53:18.587Z,15.10
2022-10-01T13:55:56.946Z,15.10
2022-10-01T13:58:43.142Z,15.10
2022-10-01T14:01:43.432Z,15.10
2022-10-01T14:04:35.408Z,15.10
2022-10-01T14:07:21.661Z,15.10
2022-10-01T14:10:02.020Z,15.10
2022-10-01T14:13:00.804Z,15.02
2022-10-01T14:16:03.564Z,15.00
2022-10-01T14:18:44.683Z,15.00
2022-10-01T14:21:47.778Z,14.90
2022-10-01T14:24:40.107Z,14.90
2022-10-01T14:27:27.381Z,14.90
2022-10-01T14:30:15.159Z,14.84
2022-10-01T14:33:26.254Z,14.80
2022-10-01T14:36:11.799Z,14.80
2022-10-01T14:38:48.644Z,14.78
2022-10-01T14:41:32.749Z,14.70
2022-10-01T14:44:27.466Z,14.70
2022-10-01T14:47:15.088Z,14.60
2022-10-01T14:49:52.218Z,14.60
2022-10-01T14:52:32.781Z,14.60
2022-10-01T14:55:15.757Z,14.60
2022-10-01T14:57:56.275Z,14.58
2022-10-01T15:00:34.880Z,14.54
2022-10-01T15:03:18.212Z,14.50
2022-10-01T15:06:05.408Z,14.50
2022-10-01T15:08:47.915Z,14.50
2022-10-01T15:11:28.337Z,14.56
2022-10-01T15:14:16.572Z,14.54
2022-10-01T15:16:53.912Z,14.60
2022-10-01T15:19:34.026Z,14.58
2022-10-01T15:22:13.989Z,14.60
2022-10-01T15:24:53.501Z,14.58
2022-10-01T15:27:30.160Z,14.60
2022-10-01T15:30:07.662Z,14.60
2022-10-01T15:32:45.120Z,14.60
2022-10-01T15:35:29.045Z,14.60
2022-10-01T15:38:06.756Z,14.60
2022-10-01T15:40:44.894Z,14.56
2022-10-01T15:43:37.468Z,14.50
2022-10-01T15:46:33.816Z,14.50
2022-10-01T15:49:27.688Z,14.50
2022-10-01T15:52:24.114Z,14.50
2022-10-01T15:55:03.957Z,14.40
2022-10-01T15:57:43.020Z,14.38
2022-10-01T16:00:30.642Z,14.30
2022-10-01T16:03:07.197Z,14.30
2022-10-01T16:05:51.464Z,14.20
2022-10-01T16:08:34.597Z,14.20
2022-10-01T16:11:31.790Z,14.20
2022-10-01T16:14:44.137Z,14.10
2022-10-01T16:17:38.261Z,14.10
2022-10-01T16:20:50.353Z,14.04
2022-10-01T16:23:49.497Z,14.00
2022-10-01T16:26:42.528Z,14.00
2022-10-01T16:29:29.932Z,13.90
2022-10-01T16:32:06.065Z,13.90
2022-10-01T16:34:41.894Z,13.86
2022-10-01T16:37:18.593Z,13.80
2022-10-01T16:39:54.437Z,13.80
2022-10-01T16:42:30.551Z,13.74
2022-10-01T16:45:08.336Z,13.70
2022-10-01T16:47:45.113Z,13.70
2022-10-01T16:50:24.809Z,13.60
2022-10-01T16:53:02.279Z,13.60
2022-10-01T16:55:38.620Z,13.50
2022-10-01T16:58:15.736Z,13.48
2022-10-01T17:00:52.156Z,13.40
2022-10-01T17:03:28.091Z,13.40
2022-10-01T17:06:04.217Z,13.36
2022-10-01T17:08:40.173Z,13.30
2022-10-01T17:11:16.825Z,13.30
2022-10-01T17:13:52.941Z,13.20
2022-10-01T17:16:29.661Z,13.20
2022-10-01T17:19:05.810Z,13.20
2022-10-01T17:21:42.219Z,13.14
2022-10-01T17:24:18.182Z,13.10
2022-10-01T17:26:54.571Z,13.10
2022-10-01T17:29:32.423Z,13.10
2022-10-01T17:32:08.364Z,13.10
2022-10-01T17:34:44.767Z,13.10
2022-10-01T17:37:21.829Z,13.04
2022-10-01T17:39:57.960Z,13.00
2022-10-01T17:42:35.575Z,13.00
2022-10-01T17:45:16.131Z,13.00
2022-10-01T17:47:53.051Z,13.00
2022-10-01T17:50:28.951Z,13.00
2022-10-01T17:53:05.681Z,13.00
2022-10-01T17:55:46.814Z,13.00
2022-10-01T17:58:24.081Z,13.00
2022-10-01T18:01:00.260Z,13.00
2022-10-01T18:03:36.398Z,13.00
2022-10-01T18:06:15.428Z,13.00
2022-10-01T18:08:55.478Z,13.00
2022-10-01T18:11:32.340Z,13.00
2022-10-01T18:14:08.716Z,13.00
2022-10-01T18:16:45.351Z,12.98
2022-10-01T18:22:17.080Z,12.90
2022-10-01T18:24:53.502Z,12.90
2022-10-01T18:27:29.657Z,12.90
2022-10-01T18:30:06.106Z,12.90
2022-10-01T18:32:46.965Z,12.88
2022-10-01T18:35:35.133Z,12.80
2022-10-01T18:38:24.452Z,12.80
2022-10-01T18:41:10.087Z,12.80
2022-10-01T18:43:47.309Z,12.80
2022-10-01T18:46:46.125Z,12.80
2022-10-01T18:49:48.954Z,12.78
2022-10-01T18:52:40.750Z,12.70
2022-10-01T18:56:21.016Z,12.70
2022-10-01T18:59:47.305Z,12.70
2022-10-01T19:02:54.032Z,12.70
2022-10-01T19:06:14.386Z,12.66
2022-10-01T19:09:38.576Z,12.60
2022-10-01T19:12:46.978Z,12.60
2022-10-01T19:15:45.092Z,12.60
2022-10-01T19:18:51.957Z,12.60
2022-10-01T19:21:45.323Z,12.60
2022-10-01T19:24:59.049Z,12.60
2022-10-01T19:28:01.105Z,12.54
2022-10-01T19:30:46.765Z,12.50
2022-10-01T19:33:25.154Z,12.50
2022-10-01T19:36:02.565Z,12.42
2022-10-01T19:38:44.024Z,12.34
2022-10-01T19:41:36.266Z,12.24
2022-10-01T19:44:21.988Z,12.10
2022-10-01T19:47:06.906Z,12.00
2022-10-01T19:49:45.945Z,11.90
2022-10-01T19:52:25.187Z,11.86
2022-10-01T19:55:02.880Z,11.78
2022-10-01T19:57:42.408Z,11.68
2022-10-01T20:00:24.547Z,11.60
2022-10-01T20:03:13.322Z,11.50
2022-10-01T20:05:54.720Z,11.40
2022-10-01T20:08:43.018Z,11.30
2022-10-01T20:11:30.372Z,11.20
2022-10-01T20:14:58.197Z,11.10
2022-10-01T20:17:56.913Z,11.00
2022-10-01T20:20:44.177Z,10.96
2022-10-01T20:23:42.563Z,10.90
2022-10-01T20:26:37.190Z,10.80
2022-10-01T20:29:38.175Z,10.70
2022-10-01T20:32:26.024Z,10.68
2022-10-01T20:35:25.350Z,10.60
2022-10-01T20:38:12.528Z,10.50
2022-10-01T20:40:55.615Z,10.50
2022-10-01T20:43:45.194Z,10.50
2022-10-01T20:46:40.469Z,10.50
2022-10-01T20:49:27.324Z,10.44
2022-10-01T20:52:15.527Z,10.40
2022-10-01T20:55:03.670Z,10.40
2022-10-01T20:57:51.008Z,10.34
2022-10-01T21:00:31.231Z,10.30
2022-10-01T21:03:25.194Z,10.30
2022-10-01T21:06:11.108Z,10.30
2022-10-01T21:08:58.761Z,10.30
2022-10-01T21:11:43.811Z,10.30
2022-10-01T21:14:30.296Z,10.30
2022-10-01T21:17:41.074Z,10.30
2022-10-01T21:20:51.009Z,10.30
2022-10-01T21:23:49.784Z,10.30
2022-10-01T21:26:37.907Z,10.30
2022-10-01T21:29:40.553Z,10.30
2022-10-01T21:32:41.286Z,10.30
2022-10-01T21:35:32.070Z,10.30
2022-10-01T21:38:28.379Z,10.30
2022-10-01T21:41:53.785Z,10.30
2022-10-01T21:45:17.825Z,10.30
2022-10-01T21:48:14.628Z,10.30
2022-10-01T21:51:07.913Z,10.30
2022-10-01T21:54:37.360Z,10.30
2022-10-01T21:57:43.347Z,10.30
2022-10-01T22:00:26.264Z,10.30
2022-10-01T22:03:23.007Z,10.30
2022-10-01T22:06:13.041Z,10.30
2022-10-01T22:09:07.248Z,10.30
2022-10-01T22:11:53.884Z,10.34
2022-10-01T22:14:32.163Z,10.34
2022-10-01T22:17:19.451Z,10.30
2022-10-01T22:20:01.100Z,10.30
2022-10-01T22:22:40.659Z,10.40
2022-10-01T22:25:17.657Z,10.30
2022-10-01T22:28:01.684Z,10.34
2022-10-01T22:30:42.888Z,10.30
2022-10-01T22:33:29.881Z,10.30
2022-10-01T22:36:17.105Z,10.30
2022-10-01T22:38:57.737Z,10.32
2022-10-01T22:41:41.773Z,10.30
2022-10-01T22:44:21.865Z,10.30
2022-10-01T22:47:35.061Z,10.30
2022-10-01T22:50:38.441Z,10.30
2022-10-01T22:53:43.669Z,10.30
2022-10-01T22:56:31.641Z,10.30
2022-10-01T22:59:24.466Z,10.30
2022-10-01T23:02:12.432Z,10.30
2022-10-01T23:05:11.579Z,10.30
2022-10-01T23:08:05.411Z,10.30
2022-10-01T23:10:52.720Z,10.30
2022-10-01T23:13:42.790Z,10.30
2022-10-01T23:16:42.186Z,10.30
2022-10-01T23:19:45.274Z,10.30
2022-10-01T23:22:41.263Z,10.30
2022-10-01T23:25:32.420Z,10.30
2022-10-01T23:28:26.667Z,10.30
2022-10-01T23:31:18.707Z,10.30
2022-10-01T23:34:08.364Z,10.30
2022-10-01T23:36:52.537Z,10.30
2022-10-01T23:39:51.493Z,10.30
2022-10-01T23:42:47.180Z,10.30
2022-10-01T23:45:33.837Z,10.28
2022-10-01T23:48:19.688Z,10.30
2022-10-01T23:51:03.416Z,10.30
2022-10-01T23:53:58.790Z,10.30
2022-10-01T23:56:50.873Z,10.30
2022-10-01T23:59:37.638Z,10.30
